Time;durP1;ratioP1;P1;durP2;ratioP2;P2;SDS_P1;SDS_P2;PMS_P1;PMS_P2;Temp;Humidity;BMP_temperature;BMP_pressure;BME280_temperature;BME280_humidity;BME280_pressure;Samples;Min_cycle;Max_cycle;Signal;HPM_P1;HPM_P2
2022/06/24 00:00:10;;;;;;;0.65;0.47;;;24.20;99.90;;;;;;5070210;28;20080;-70
2022/06/24 00:02:38;;;;;;;2.35;1.35;;;24.10;99.90;;;;;;5068042;28;20048;-70
2022/06/24 00:05:08;;;;;;;1.20;0.57;;;24.10;99.90;;;;;;5048598;28;20076;-70
2022/06/24 00:08:05;;;;;;;1.17;1.08;;;24.10;99.90;;;;;;5036907;28;20060;-70
2022/06/24 00:10:33;;;;;;;0.00;0.00;;;24.00;99.90;;;;;;5060211;28;20135;-70
2022/06/24 00:12:59;;;;;;;0.30;0.30;;;24.00;99.90;;;;;;5067723;28;20365;-70
2022/06/24 00:15:27;;;;;;;0.20;0.20;;;24.00;99.90;;;;;;5070347;28;20102;-70
2022/06/24 00:17:53;;;;;;;0.55;0.25;;;24.10;99.90;;;;;;5072162;28;20124;-70
2022/06/24 00:20:20;;;;;;;0.63;0.50;;;24.10;99.90;;;;;;5073793;28;20048;-70
2022/06/24 00:22:49;;;;;;;0.15;0.15;;;24.10;99.90;;;;;;5055945;28;20064;-70
2022/06/24 00:25:24;;;;;;;0.30;0.30;;;24.10;99.90;;;;;;5071388;28;20040;-70
2022/06/24 00:27:59;;;;;;;0.22;0.20;;;24.10;99.90;;;;;;5072357;28;20396;-70
2022/06/24 00:30:24;;;;;;;0.40;0.40;;;24.10;99.90;;;;;;5073033;28;20687;-70
2022/06/24 00:32:50;;;;;;;3.78;1.63;;;24.00;99.90;;;;;;5074084;28;20126;-70
2022/06/24 00:35:17;;;;;;;0.47;0.45;;;24.00;99.90;;;;;;5049778;28;20087;-70
2022/06/24 00:37:45;;;;;;;0.00;0.00;;;23.90;99.90;;;;;;5072977;28;20044;-70
2022/06/24 00:40:11;;;;;;;1.67;1.55;;;24.00;99.90;;;;;;5063581;28;20487;-70
2022/06/24 00:42:46;;;;;;;0.17;0.17;;;23.90;99.90;;;;;;5087043;28;20054;-70
2022/06/24 00:45:41;;;;;;;0.10;0.10;;;23.80;99.90;;;;;;5074187;28;20136;-70
2022/06/24 00:48:15;;;;;;;3.38;0.90;;;23.90;99.90;;;;;;5071707;28;20058;-70
2022/06/24 00:50:46;;;;;;;3.33;0.93;;;23.90;99.90;;;;;;5071705;28;20045;-70
2022/06/24 00:53:13;;;;;;;0.25;0.22;;;23.90;99.90;;;;;;5050809;28;20048;-70
2022/06/24 00:55:41;;;;;;;0.30;0.30;;;23.80;99.90;;;;;;5053298;28;20546;-70
2022/06/24 00:58:14;;;;;;;0.30;0.20;;;23.70;99.90;;;;;;5055537;28;20037;-70
2022/06/24 01:00:42;;;;;;;0.15;0.15;;;23.60;99.90;;;;;;5093179;28;20055;-70
2022/06/24 01:03:08;;;;;;;1.05;1.00;;;23.60;99.90;;;;;;5045113;28;20373;-70
2022/06/24 01:05:34;;;;;;;0.30;0.30;;;23.60;99.90;;;;;;5049858;28;20048;-70
2022/06/24 01:08:08;;;;;;;1.17;0.68;;;23.60;99.90;;;;;;5062105;28;20052;-70
2022/06/24 01:10:34;;;;;;;0.63;0.63;;;23.50;99.90;;;;;;5072956;28;20547;-70
2022/06/24 01:13:00;;;;;;;0.20;0.20;;;23.50;99.90;;;;;;5054310;28;20047;-70
2022/06/24 01:15:26;;;;;;;0.35;0.32;;;23.50;99.90;;;;;;5064352;28;20044;-70
2022/06/24 01:17:51;;;;;;;1.05;0.60;;;23.40;99.90;;;;;;5093549;28;20085;-70
2022/06/24 01:20:18;;;;;;;0.00;0.00;;;23.40;99.90;;;;;;5075765;28;20060;-70
2022/06/24 01:22:43;;;;;;;0.10;0.10;;;23.40;99.90;;;;;;5071288;28;20128;-69
2022/06/24 01:25:10;;;;;;;2.22;1.33;;;23.40;99.90;;;;;;5071934;28;20139;-70
2022/06/24 01:27:37;;;;;;;1.00;0.30;;;23.30;99.90;;;;;;5069474;28;20037;-70
2022/06/24 01:30:04;;;;;;;0.35;0.25;;;23.30;99.90;;;;;;5072144;28;20500;-70
2022/06/24 01:32:30;;;;;;;0.68;0.60;;;23.20;99.90;;;;;;5072480;28;20480;-70
2022/06/24 01:34:56;;;;;;;0.03;0.03;;;23.30;99.90;;;;;;5053913;28;20102;-70
2022/06/24 01:37:22;;;;;;;0.52;0.40;;;23.30;99.90;;;;;;5085539;28;20529;-70
2022/06/24 01:39:48;;;;;;;1.10;1.08;;;23.20;99.90;;;;;;5062791;28;20040;-70
2022/06/24 01:42:14;;;;;;;0.10;0.10;;;23.20;99.90;;;;;;5047905;28;20049;-70
2022/06/24 01:44:39;;;;;;;0.10;0.10;;;23.10;99.90;;;;;;5041800;28;20110;-70
2022/06/24 01:47:05;;;;;;;0.05;0.05;;;23.10;99.90;;;;;;5092299;28;20083;-70
2022/06/24 01:49:31;;;;;;;0.65;0.25;;;23.10;99.90;;;;;;5091841;28;20048;-70
2022/06/24 01:51:59;;;;;;;0.30;0.30;;;23.20;99.90;;;;;;5092675;28;20044;-70
2022/06/24 01:54:25;;;;;;;1.00;0.85;;;23.10;99.90;;;;;;5060186;28;20420;-70
2022/06/24 01:56:50;;;;;;;1.08;0.75;;;23.10;99.90;;;;;;5071582;28;20041;-70
2022/06/24 01:59:16;;;;;;;1.27;1.10;;;23.10;99.90;;;;;;5054114;28;20059;-70
2022/06/24 02:01:42;;;;;;;1.08;0.63;;;23.10;99.90;;;;;;5075452;28;20066;-69
2022/06/24 02:04:09;;;;;;;1.38;0.38;;;23.20;99.90;;;;;;5080105;28;20045;-70
2022/06/24 02:06:35;;;;;;;0.60;0.45;;;23.10;99.90;;;;;;5050179;28;20135;-70
2022/06/24 02:09:01;;;;;;;0.65;0.65;;;23.00;99.90;;;;;;5051599;28;20053;-70
2022/06/24 02:14:12;;;;;;;0.10;0.10;;;23.00;99.90;;;;;;5056965;28;20689;-70
2022/06/24 02:16:38;;;;;;;0.43;0.43;;;23.00;99.90;;;;;;5070845;28;20055;-70
2022/06/24 02:19:06;;;;;;;0.00;0.00;;;23.00;99.90;;;;;;5053928;28;20037;-70
2022/06/24 02:21:31;;;;;;;2.55;0.90;;;23.00;99.90;;;;;;5070327;28;20056;-70
2022/06/24 02:23:57;;;;;;;0.20;0.20;;;23.00;99.90;;;;;;5052973;28;20056;-70
2022/06/24 02:26:23;;;;;;;0.10;0.10;;;23.00;99.90;;;;;;5069658;28;20036;-70
2022/06/24 02:28:49;;;;;;;1.40;0.73;;;22.90;99.90;;;;;;5050310;28;20132;-70
2022/06/24 02:31:15;;;;;;;0.17;0.13;;;22.80;99.90;;;;;;5054832;28;20055;-70
2022/06/24 02:33:41;;;;;;;0.20;0.20;;;22.80;99.90;;;;;;5071044;28;20400;-70
2022/06/24 02:36:07;;;;;;;1.17;1.08;;;22.80;99.90;;;;;;5070913;28;20051;-70
2022/06/24 02:38:34;;;;;;;0.22;0.22;;;22.80;99.90;;;;;;5067723;28;20045;-70
2022/06/24 02:41:00;;;;;;;0.20;0.20;;;22.80;99.90;;;;;;5085213;28;20090;-70
2022/06/24 02:43:27;;;;;;;0.70;0.47;;;22.80;99.90;;;;;;5091302;28;20040;-70
2022/06/24 02:46:04;;;;;;;0.20;0.10;;;22.70;99.90;;;;;;5071762;28;20123;-70
2022/06/24 02:48:33;;;;;;;0.32;0.32;;;22.60;99.90;;;;;;5081170;28;20044;-70
2022/06/24 02:51:00;;;;;;;0.38;0.30;;;22.50;99.90;;;;;;5048425;28;20565;-70
2022/06/24 02:53:28;;;;;;;0.40;0.40;;;22.50;99.90;;;;;;5033090;28;20064;-70
2022/06/24 02:55:55;;;;;;;0.10;0.10;;;22.40;99.90;;;;;;5072566;28;20048;-69
2022/06/24 02:58:21;;;;;;;0.32;0.32;;;22.30;99.90;;;;;;5089832;28;20568;-70
2022/06/24 03:00:47;;;;;;;0.93;0.80;;;22.40;99.90;;;;;;5091138;28;20122;-70
2022/06/24 03:03:17;;;;;;;0.35;0.35;;;22.30;99.90;;;;;;5066829;28;20036;-70
2022/06/24 03:05:43;;;;;;;0.10;0.10;;;22.30;99.90;;;;;;5065806;28;20396;-70
2022/06/24 03:08:11;;;;;;;0.75;0.75;;;22.40;99.90;;;;;;5052871;28;20040;-70
2022/06/24 03:10:36;;;;;;;0.68;0.68;;;22.40;99.90;;;;;;5071643;28;20487;-70
2022/06/24 03:13:03;;;;;;;0.47;0.47;;;22.40;99.90;;;;;;5071300;28;20093;-70
2022/06/24 03:15:29;;;;;;;0.73;0.65;;;22.50;99.90;;;;;;5075074;28;20049;-70
2022/06/24 03:17:55;;;;;;;0.65;0.55;;;22.50;99.90;;;;;;5070424;28;20538;-70
2022/06/24 03:20:21;;;;;;;0.00;0.00;;;22.40;99.90;;;;;;5068013;28;20028;-70
2022/06/24 03:22:46;;;;;;;0.65;0.65;;;22.40;99.90;;;;;;5070747;28;20051;-70
2022/06/24 03:25:12;;;;;;;1.13;1.02;;;22.30;99.90;;;;;;5052494;28;20095;-70
2022/06/24 03:27:38;;;;;;;0.00;0.00;;;22.30;99.90;;;;;;5049856;28;20796;-69
2022/06/24 03:30:09;;;;;;;0.00;0.00;;;22.60;99.90;;;;;;5048748;28;20045;-70
2022/06/24 03:32:35;;;;;;;0.10;0.10;;;22.50;99.90;;;;;;5050106;28;20093;-70
2022/06/24 03:35:01;;;;;;;0.30;0.30;;;22.60;99.90;;;;;;5056679;28;20048;-70
2022/06/24 03:37:28;;;;;;;0.45;0.45;;;22.40;99.90;;;;;;5070296;28;20049;-69
2022/06/24 03:39:54;;;;;;;0.63;0.63;;;22.40;99.90;;;;;;5070634;28;20044;-69
2022/06/24 03:42:20;;;;;;;0.20;0.20;;;22.30;99.90;;;;;;5083243;28;20048;-70
2022/06/24 03:44:46;;;;;;;0.32;0.32;;;22.40;99.90;;;;;;5090315;28;20403;-70
2022/06/24 03:47:11;;;;;;;0.45;0.45;;;22.40;99.90;;;;;;5071278;28;20143;-70
2022/06/24 03:49:37;;;;;;;0.45;0.45;;;22.30;99.90;;;;;;5069302;28;20056;-70
2022/06/24 03:52:03;;;;;;;0.13;0.13;;;22.30;99.90;;;;;;5084658;28;20044;-70
2022/06/24 03:54:29;;;;;;;0.90;0.60;;;22.40;99.90;;;;;;5047321;28;20416;-70
2022/06/24 03:56:54;;;;;;;1.50;1.27;;;22.40;99.90;;;;;;5050182;28;20057;-70
2022/06/24 03:59:20;;;;;;;0.65;0.20;;;22.30;99.90;;;;;;5032090;28;20380;-70
2022/06/24 04:01:46;;;;;;;0.95;0.80;;;22.40;99.90;;;;;;5056923;28;20044;-70
2022/06/24 04:04:11;;;;;;;0.68;0.68;;;22.40;99.90;;;;;;5071610;28;20048;-70
2022/06/24 04:06:37;;;;;;;0.65;0.40;;;22.40;99.90;;;;;;5090253;28;20044;-70
2022/06/24 04:09:03;;;;;;;1.67;1.48;;;22.50;99.90;;;;;;5071515;28;20128;-70
2022/06/24 04:11:28;;;;;;;0.20;0.20;;;22.50;99.90;;;;;;5052534;28;20052;-70
2022/06/24 04:13:54;;;;;;;9.02;0.82;;;22.40;99.90;;;;;;5066199;28;20054;-70
2022/06/24 04:16:20;;;;;;;1.77;0.75;;;22.30;99.90;;;;;;5050806;28;20048;-70
2022/06/24 04:18:47;;;;;;;2.22;0.55;;;22.20;99.90;;;;;;5059928;28;20100;-70
2022/06/24 04:21:15;;;;;;;0.32;0.32;;;22.10;99.90;;;;;;5051653;28;20128;-70
2022/06/24 04:23:41;;;;;;;0.20;0.20;;;22.10;99.90;;;;;;5066951;28;20460;-70
2022/06/24 04:26:07;;;;;;;0.32;0.20;;;22.10;99.90;;;;;;5048473;28;20155;-70
2022/06/24 04:28:33;;;;;;;0.40;0.40;;;21.90;99.90;;;;;;5048963;28;20404;-70
2022/06/24 04:30:59;;;;;;;0.38;0.38;;;21.90;99.90;;;;;;5047322;28;20118;-70
2022/06/24 04:33:25;;;;;;;10.07;1.55;;;21.80;99.90;;;;;;5049530;28;20037;-70
2022/06/24 04:35:51;;;;;;;0.20;0.20;;;21.70;99.90;;;;;;5031995;28;20135;-70
2022/06/24 04:38:16;;;;;;;0.22;0.17;;;21.60;99.90;;;;;;5072914;28;20047;-70
2022/06/24 04:40:42;;;;;;;0.10;0.10;;;21.50;99.90;;;;;;5051695;28;20091;-70
2022/06/24 04:43:08;;;;;;;0.52;0.52;;;21.50;99.90;;;;;;5057963;28;20129;-70
2022/06/24 04:45:34;;;;;;;0.30;0.30;;;21.40;99.90;;;;;;5070592;28;20044;-70
2022/06/24 04:48:00;;;;;;;0.28;0.10;;;21.30;99.90;;;;;;5086955;28;20048;-70
2022/06/24 04:50:26;;;;;;;0.08;0.08;;;21.30;99.90;;;;;;5086100;28;20040;-70
2022/06/24 04:52:52;;;;;;;0.00;0.00;;;21.20;99.90;;;;;;5050337;28;20106;-70
2022/06/24 04:55:17;;;;;;;0.00;0.00;;;21.20;99.90;;;;;;5049134;28;20061;-70
2022/06/24 04:57:43;;;;;;;0.00;0.00;;;21.30;99.90;;;;;;5030826;28;20053;-70
2022/06/24 05:00:09;;;;;;;0.20;0.20;;;21.30;99.90;;;;;;5061777;28;20051;-70
2022/06/24 05:02:35;;;;;;;1.25;0.55;;;21.20;99.90;;;;;;5071483;28;20041;-70
2022/06/24 05:05:02;;;;;;;0.32;0.32;;;21.20;99.90;;;;;;5072242;28;20052;-70
2022/06/24 05:07:27;;;;;;;0.25;0.25;;;21.20;99.90;;;;;;5048362;28;20397;-68
2022/06/24 05:09:53;;;;;;;0.00;0.00;;;21.20;99.90;;;;;;5073309;28;20045;-68
2022/06/24 05:12:19;;;;;;;0.20;0.20;;;21.20;99.90;;;;;;5071625;28;20064;-68
2022/06/24 05:14:44;;;;;;;0.45;0.45;;;21.00;99.90;;;;;;5053081;28;20581;-68
2022/06/24 05:17:10;;;;;;;0.45;0.30;;;21.10;99.90;;;;;;5072491;28;20320;-67
2022/06/24 05:19:36;;;;;;;0.38;0.30;;;21.10;99.90;;;;;;5049451;28;20492;-68
2022/06/24 05:22:01;;;;;;;0.32;0.32;;;21.00;99.90;;;;;;5070601;28;20075;-68
2022/06/24 05:24:27;;;;;;;0.03;0.03;;;21.00;99.90;;;;;;5072792;28;20045;-68
2022/06/24 05:26:53;;;;;;;0.10;0.10;;;21.00;99.90;;;;;;5082750;28;20120;-67
2022/06/24 05:29:18;;;;;;;0.10;0.10;;;21.00;99.90;;;;;;5074265;28;20051;-67
2022/06/24 05:31:45;;;;;;;0.00;0.00;;;20.90;99.90;;;;;;5093199;28;20047;-67
2022/06/24 05:34:11;;;;;;;5.78;1.42;;;20.90;99.90;;;;;;5089602;28;20105;-66
2022/06/24 05:36:37;;;;;;;0.80;0.25;;;20.80;99.90;;;;;;5092625;28;20165;-66
2022/06/24 05:39:05;;;;;;;0.45;0.35;;;20.80;99.90;;;;;;5087137;28;20123;-66
2022/06/24 05:41:31;;;;;;;2.95;1.38;;;20.90;99.90;;;;;;5071748;28;20044;-66
2022/06/24 05:43:56;;;;;;;0.22;0.22;;;20.90;99.90;;;;;;5072955;28;20036;-66
2022/06/24 05:46:22;;;;;;;0.00;0.00;;;20.90;99.90;;;;;;5072094;28;20032;-67
2022/06/24 05:48:47;;;;;;;1.48;0.68;;;21.10;99.90;;;;;;5090941;28;20521;-67
2022/06/24 05:51:16;;;;;;;0.00;0.00;;;21.10;99.90;;;;;;5074765;28;20048;-67
2022/06/24 05:56:28;;;;;;;0.00;0.00;;;21.00;99.90;;;;;;5050999;28;20132;-67
2022/06/24 05:58:53;;;;;;;0.00;0.00;;;20.90;99.90;;;;;;5052535;28;20053;-67
2022/06/24 06:01:19;;;;;;;0.00;0.00;;;20.80;99.90;;;;;;5074299;28;20033;-67
2022/06/24 06:03:47;;;;;;;0.25;0.25;;;20.90;99.90;;;;;;5082306;28;20075;-66
2022/06/24 06:06:13;;;;;;;0.00;0.00;;;20.80;99.90;;;;;;5072205;28;20120;-67
2022/06/24 06:08:39;;;;;;;0.10;0.10;;;20.70;99.90;;;;;;5071294;28;20213;-67
2022/06/24 06:11:11;;;;;;;0.00;0.00;;;20.80;99.90;;;;;;5071893;28;20458;-67
2022/06/24 06:13:37;;;;;;;0.10;0.10;;;20.80;99.90;;;;;;5082900;28;20489;-67
2022/06/24 06:16:03;;;;;;;0.15;0.15;;;20.80;99.90;;;;;;5070932;28;20079;-66
2022/06/24 06:18:28;;;;;;;0.00;0.00;;;20.70;99.90;;;;;;5069904;28;20075;-67
2022/06/24 06:20:59;;;;;;;0.00;0.00;;;20.70;99.90;;;;;;5072058;28;20480;-67
2022/06/24 06:23:25;;;;;;;0.47;0.47;;;20.70;99.90;;;;;;5053185;28;20044;-67
2022/06/24 06:25:51;;;;;;;0.00;0.00;;;20.60;99.90;;;;;;5070057;28;20041;-68
2022/06/24 06:28:16;;;;;;;0.35;0.35;;;20.60;99.90;;;;;;5058229;28;20075;-68
2022/06/24 06:30:42;;;;;;;0.08;0.08;;;20.60;99.90;;;;;;5032936;28;20048;-67
2022/06/24 06:33:07;;;;;;;2.40;0.85;;;20.60;99.90;;;;;;5051219;28;20049;-68
2022/06/24 06:35:33;;;;;;;0.10;0.10;;;20.60;99.90;;;;;;5063444;28;20036;-68
2022/06/24 06:37:58;;;;;;;0.00;0.00;;;20.60;99.90;;;;;;5070670;28;20047;-68
2022/06/24 06:40:24;;;;;;;0.00;0.00;;;20.60;99.90;;;;;;5071537;28;20037;-67
2022/06/24 06:42:53;;;;;;;0.55;0.35;;;20.70;99.90;;;;;;5051923;28;20063;-67
2022/06/24 06:45:19;;;;;;;0.20;0.10;;;20.70;99.90;;;;;;5071264;28;20056;-66
2022/06/24 06:47:45;;;;;;;0.43;0.43;;;20.60;99.90;;;;;;5053788;28;20045;-67
2022/06/24 06:50:11;;;;;;;0.17;0.13;;;20.70;99.90;;;;;;5067332;28;20090;-67
2022/06/24 06:52:36;;;;;;;0.00;0.00;;;20.70;99.90;;;;;;5091549;28;20051;-66
2022/06/24 06:55:02;;;;;;;0.03;0.03;;;20.70;99.90;;;;;;5075710;28;20121;-67
2022/06/24 06:57:28;;;;;;;0.10;0.10;;;20.70;99.90;;;;;;5048970;28;20041;-67
2022/06/24 06:59:53;;;;;;;0.55;0.43;;;20.60;99.90;;;;;;5051569;28;20067;-67
2022/06/24 07:02:19;;;;;;;0.50;0.50;;;20.70;99.90;;;;;;5050763;28;20045;-67
2022/06/24 07:04:45;;;;;;;0.30;0.30;;;20.60;99.90;;;;;;5079391;28;20039;-67
2022/06/24 07:07:10;;;;;;;0.55;0.55;;;20.70;99.90;;;;;;5073145;28;20109;-66
2022/06/24 07:09:36;;;;;;;0.10;0.10;;;20.70;99.90;;;;;;5091352;28;20044;-67
2022/06/24 07:12:01;;;;;;;0.00;0.00;;;20.70;99.90;;;;;;5090566;28;20119;-67
2022/06/24 07:14:27;;;;;;;0.22;0.22;;;20.70;99.90;;;;;;5077020;28;20050;-67
2022/06/24 07:16:52;;;;;;;1.17;0.52;;;20.60;99.90;;;;;;5071087;28;20033;-67
2022/06/24 07:19:18;;;;;;;0.20;0.20;;;20.70;99.90;;;;;;5070115;28;20066;-67
2022/06/24 07:21:43;;;;;;;0.13;0.13;;;20.70;99.90;;;;;;5078689;28;20036;-67
2022/06/24 07:24:09;;;;;;;0.10;0.10;;;20.70;99.90;;;;;;5071846;28;20531;-67
2022/06/24 07:26:35;;;;;;;0.20;0.20;;;20.70;99.90;;;;;;5090048;28;20052;-68
2022/06/24 07:29:00;;;;;;;0.20;0.20;;;20.70;99.90;;;;;;5080300;28;20085;-68
2022/06/24 07:31:26;;;;;;;0.32;0.32;;;20.60;99.90;;;;;;5048667;28;20476;-68
2022/06/24 07:33:51;;;;;;;0.47;0.40;;;20.60;99.90;;;;;;5049650;28;20048;-68
2022/06/24 07:36:17;;;;;;;0.22;0.22;;;20.60;99.90;;;;;;5050016;28;20512;-68
2022/06/24 07:38:43;;;;;;;0.20;0.20;;;20.50;99.90;;;;;;5059758;28;20450;-68
2022/06/24 07:41:09;;;;;;;2.72;0.20;;;20.60;99.90;;;;;;5063246;28;20131;-68
2022/06/24 07:43:38;;;;;;;0.10;0.10;;;20.60;99.90;;;;;;5070311;28;20403;-68
2022/06/24 07:46:08;;;;;;;0.50;0.45;;;20.60;99.90;;;;;;5046519;28;20075;-68
2022/06/24 07:48:36;;;;;;;0.45;0.30;;;20.60;99.90;;;;;;5066448;28;20084;-68
2022/06/24 07:51:28;;;;;;;0.10;0.10;;;20.60;99.90;;;;;;5051813;28;20049;-68
2022/06/24 07:53:54;;;;;;;0.05;0.05;;;20.50;99.90;;;;;;5062674;28;20399;-68
2022/06/24 07:59:05;;;;;;;0.10;0.10;;;20.50;99.90;;;;;;5069791;28;20110;-68
2022/06/24 08:01:31;;;;;;;0.50;0.28;;;20.60;99.90;;;;;;5072896;28;20090;-68
2022/06/24 08:03:58;;;;;;;0.00;0.00;;;20.60;99.90;;;;;;5090157;28;20044;-68
2022/06/24 08:06:24;;;;;;;1.45;0.93;;;20.70;99.90;;;;;;5071982;28;20526;-68
2022/06/24 08:08:50;;;;;;;1.00;0.55;;;20.70;99.90;;;;;;5087427;28;20032;-68
2022/06/24 08:11:15;;;;;;;0.25;0.25;;;20.80;99.90;;;;;;5071544;28;20105;-68
2022/06/24 08:13:41;;;;;;;0.20;0.20;;;20.80;99.90;;;;;;5058838;28;20060;-68
2022/06/24 08:16:07;;;;;;;1.95;0.90;;;20.80;99.90;;;;;;5081801;28;20046;-68
2022/06/24 08:18:33;;;;;;;0.10;0.10;;;20.80;99.90;;;;;;5071831;28;20047;-68
2022/06/24 08:20:58;;;;;;;0.00;0.00;;;20.60;99.90;;;;;;5089307;28;20418;-68
2022/06/24 08:23:24;;;;;;;0.05;0.05;;;20.70;99.90;;;;;;5069523;28;20047;-68
2022/06/24 08:25:49;;;;;;;0.20;0.20;;;20.70;99.90;;;;;;5048826;28;20047;-68
2022/06/24 08:28:15;;;;;;;0.45;0.45;;;20.60;99.90;;;;;;5082250;28;20047;-68
2022/06/24 08:30:40;;;;;;;0.00;0.00;;;20.60;99.90;;;;;;5085460;28;20052;-67
2022/06/24 08:33:06;;;;;;;1.58;0.80;;;20.50;99.90;;;;;;5089591;28;20048;-65
2022/06/24 08:35:32;;;;;;;0.00;0.00;;;20.50;99.90;;;;;;5089259;28;20487;-67
2022/06/24 08:37:58;;;;;;;1.35;0.98;;;20.40;99.90;;;;;;5073828;28;20502;-67
2022/06/24 08:40:28;;;;;;;2.70;0.90;;;20.30;99.90;;;;;;5073425;28;20072;-67
2022/06/24 08:42:56;;;;;;;0.25;0.25;;;20.30;99.90;;;;;;5072967;28;20051;-67
2022/06/24 08:45:23;;;;;;;0.32;0.30;;;20.30;99.90;;;;;;5060020;28;20048;-67
2022/06/24 08:47:49;;;;;;;0.20;0.20;;;20.30;99.90;;;;;;5093717;28;20063;-67
2022/06/24 08:50:15;;;;;;;0.05;0.05;;;20.30;99.90;;;;;;5092622;28;20051;-67
2022/06/24 08:52:50;;;;;;;0.00;0.00;;;20.20;99.90;;;;;;5078106;28;20052;-66
2022/06/24 08:55:17;;;;;;;0.47;0.22;;;20.10;99.90;;;;;;5072532;28;20060;-67
2022/06/24 08:57:44;;;;;;;0.00;0.00;;;20.10;99.90;;;;;;5072656;28;20055;-67
2022/06/24 09:00:10;;;;;;;0.13;0.10;;;20.10;99.90;;;;;;5055024;28;20072;-67
2022/06/24 09:02:36;;;;;;;0.32;0.32;;;20.00;99.90;;;;;;5084037;28;20051;-67
2022/06/24 09:05:11;;;;;;;0.00;0.00;;;20.00;99.90;;;;;;5092798;28;20044;-67
2022/06/24 09:07:37;;;;;;;1.08;0.95;;;19.90;99.90;;;;;;5093715;28;20063;-67
2022/06/24 09:10:06;;;;;;;0.00;0.00;;;19.90;99.90;;;;;;5093665;28;20048;-66
2022/06/24 09:12:40;;;;;;;0.38;0.20;;;19.90;99.90;;;;;;5074106;28;20049;-66
2022/06/24 09:15:07;;;;;;;0.00;0.00;;;19.90;99.90;;;;;;5073183;28;20051;-66
2022/06/24 09:17:34;;;;;;;0.20;0.20;;;19.90;99.90;;;;;;5073148;28;20123;-66
2022/06/24 09:20:19;;;;;;;0.00;0.00;;;19.90;99.90;;;;;;5070713;28;20045;-66
2022/06/24 09:22:45;;;;;;;0.17;0.17;;;19.90;99.90;;;;;;5072972;28;20090;-66
2022/06/24 09:25:11;;;;;;;0.05;0.05;;;19.90;99.90;;;;;;5069632;28;20049;-66
2022/06/24 09:27:46;;;;;;;4.20;0.35;;;19.90;99.90;;;;;;5072458;28;20051;-66
2022/06/24 09:30:15;;;;;;;0.03;0.03;;;19.80;99.90;;;;;;5070061;28;20537;-66
2022/06/24 09:32:51;;;;;;;0.05;0.05;;;19.90;99.90;;;;;;5071344;28;20055;-66
2022/06/24 09:35:18;;;;;;;0.08;0.08;;;19.90;99.90;;;;;;5071128;28;20059;-66
2022/06/24 09:37:45;;;;;;;0.10;0.10;;;19.90;99.90;;;;;;5072618;28;20055;-67
2022/06/24 09:40:26;;;;;;;0.13;0.13;;;19.70;99.90;;;;;;5071690;28;20040;-66
2022/06/24 09:42:59;;;;;;;9.13;0.45;;;19.70;99.90;;;;;;5091710;28;20075;-67
2022/06/24 09:45:41;;;;;;;0.20;0.20;;;19.70;99.90;;;;;;5092650;28;20036;-67
2022/06/24 09:48:07;;;;;;;0.03;0.03;;;19.60;99.90;;;;;;5091642;28;20074;-66
2022/06/24 09:50:33;;;;;;;0.10;0.10;;;19.70;99.90;;;;;;5072782;28;20076;-67
2022/06/24 09:53:01;;;;;;;0.15;0.15;;;19.70;99.90;;;;;;5071414;28;20044;-67
2022/06/24 09:55:28;;;;;;;0.00;0.00;;;19.70;99.90;;;;;;5070615;28;20053;-67
2022/06/24 09:57:54;;;;;;;0.75;0.75;;;19.70;99.90;;;;;;5071936;28;20590;-67
2022/06/24 10:03:07;;;;;;;0.00;0.00;;;19.70;99.90;;;;;;5052705;28;20060;-67
2022/06/24 10:05:35;;;;;;;0.00;0.00;;;19.80;99.90;;;;;;5072023;28;20083;-67
2022/06/24 10:08:03;;;;;;;0.00;0.00;;;19.80;99.90;;;;;;5071188;28;20068;-67
2022/06/24 10:10:33;;;;;;;0.10;0.10;;;19.80;99.90;;;;;;5086001;28;20040;-67
2022/06/24 10:13:05;;;;;;;0.05;0.05;;;19.80;99.90;;;;;;5091747;28;20151;-67
2022/06/24 10:15:32;;;;;;;0.05;0.05;;;19.90;99.90;;;;;;5075486;28;20190;-67
2022/06/24 10:17:58;;;;;;;0.03;0.03;;;19.90;99.90;;;;;;5069537;28;20138;-68
2022/06/24 10:20:24;;;;;;;4.03;0.90;;;19.90;99.90;;;;;;5071007;28;20501;-68
2022/06/24 10:22:50;;;;;;;0.05;0.05;;;19.90;99.90;;;;;;5070848;28;20059;-68
2022/06/24 10:25:48;;;;;;;0.00;0.00;;;19.90;99.90;;;;;;5069523;28;20044;-68
2022/06/24 10:28:13;;;;;;;1.08;0.45;;;19.90;99.90;;;;;;5052629;28;20055;-68
2022/06/24 10:30:39;;;;;;;0.03;0.03;;;20.00;99.90;;;;;;5069481;28;20601;-68
2022/06/24 10:33:17;;;;;;;0.20;0.20;;;20.00;99.90;;;;;;5049726;28;20106;-68
2022/06/24 10:35:55;;;;;;;1.27;0.40;;;20.00;99.90;;;;;;5054231;28;20051;-70
2022/06/24 10:38:23;;;;;;;0.03;0.03;;;20.10;99.90;;;;;;5070653;28;20499;-70
2022/06/24 10:40:50;;;;;;;0.00;0.00;;;20.20;99.90;;;;;;5081706;28;20072;-70
2022/06/24 10:43:36;;;;;;;0.20;0.20;;;20.20;99.90;;;;;;5090666;28;20032;-70
2022/06/24 10:46:13;;;;;;;0.10;0.10;;;20.20;99.90;;;;;;5086821;28;20048;-70
2022/06/24 10:48:51;;;;;;;0.22;0.22;;;20.30;99.90;;;;;;5072952;28;20052;-70
2022/06/24 10:51:21;;;;;;;0.43;0.25;;;20.40;99.90;;;;;;5072130;28;20044;-70
2022/06/24 10:54:02;;;;;;;0.28;0.28;;;20.30;99.90;;;;;;5091562;28;20036;-70
2022/06/24 10:56:50;;;;;;;0.43;0.20;;;20.40;99.90;;;;;;5087936;28;20060;-69
2022/06/24 10:59:19;;;;;;;3.92;0.75;;;20.40;99.90;;;;;;5072454;28;20506;-69
2022/06/24 11:01:47;;;;;;;0.55;0.55;;;20.50;99.90;;;;;;5052367;28;20131;-69
2022/06/24 11:04:41;;;;;;;0.10;0.10;;;20.50;99.90;;;;;;5065206;28;20472;-70
2022/06/24 11:07:10;;;;;;;3.33;2.83;;;20.50;99.90;;;;;;5065290;28;20699;-70
2022/06/24 11:09:37;;;;;;;0.38;0.20;;;20.60;99.90;;;;;;5070549;28;20119;-70
2022/06/24 11:12:04;;;;;;;0.20;0.20;;;20.60;99.90;;;;;;5069916;28;20085;-71
2022/06/24 11:14:30;;;;;;;0.00;0.00;;;20.60;99.90;;;;;;5052527;28;20041;-71
2022/06/24 11:16:56;;;;;;;0.50;0.43;;;20.60;99.90;;;;;;5068094;28;20384;-70
2022/06/24 11:19:21;;;;;;;0.13;0.13;;;20.50;99.90;;;;;;5069521;28;20404;-70
2022/06/24 11:21:49;;;;;;;0.00;0.00;;;20.60;99.90;;;;;;5069085;28;20045;-71
2022/06/24 11:24:19;;;;;;;0.47;0.47;;;20.60;99.90;;;;;;5069371;28;20051;-70
2022/06/24 11:27:06;;;;;;;0.35;0.25;;;20.70;99.90;;;;;;5070463;28;20078;-70
2022/06/24 11:29:57;;;;;;;0.32;0.32;;;20.70;99.90;;;;;;5070408;28;20036;-70
2022/06/24 11:32:24;;;;;;;0.00;0.00;;;20.70;99.90;;;;;;5052210;28;20049;-71
2022/06/24 11:34:50;;;;;;;0.05;0.05;;;20.80;99.90;;;;;;5069371;28;20055;-71
2022/06/24 11:37:23;;;;;;;0.40;0.40;;;20.80;99.90;;;;;;5048811;28;20045;-70
2022/06/24 11:39:55;;;;;;;0.38;0.38;;;20.80;99.90;;;;;;5058924;28;20055;-71
2022/06/24 11:42:22;;;;;;;0.22;0.22;;;20.90;99.90;;;;;;5068122;28;20040;-70
2022/06/24 11:44:50;;;;;;;0.28;0.28;;;20.80;99.90;;;;;;5051077;28;20053;-70
2022/06/24 11:47:16;;;;;;;0.10;0.10;;;20.90;99.90;;;;;;5069520;28;20431;-71
2022/06/24 11:49:44;;;;;;;0.65;0.65;;;20.80;99.90;;;;;;5070484;28;20045;-71
2022/06/24 11:52:10;;;;;;;0.43;0.43;;;20.90;99.90;;;;;;5068014;28;20466;-71
2022/06/24 11:54:36;;;;;;;0.10;0.05;;;21.00;99.90;;;;;;5046943;28;20140;-70
2022/06/24 11:57:06;;;;;;;0.10;0.10;;;21.00;99.90;;;;;;5050317;28;20052;-71
2022/06/24 11:59:31;;;;;;;0.00;0.00;;;21.00;99.90;;;;;;5069759;28;20048;-71
2022/06/24 12:01:57;;;;;;;1.10;0.50;;;21.00;99.90;;;;;;5070504;28;20051;-71
2022/06/24 12:04:25;;;;;;;0.10;0.10;;;21.10;99.90;;;;;;5068864;28;20450;-70
2022/06/24 12:06:51;;;;;;;0.35;0.35;;;21.10;99.90;;;;;;5070940;28;20118;-71
2022/06/24 12:09:17;;;;;;;0.13;0.13;;;21.00;99.90;;;;;;5090465;28;20444;-71
2022/06/24 12:11:44;;;;;;;0.47;0.47;;;21.10;99.90;;;;;;5092862;28;20445;-71
2022/06/24 12:14:11;;;;;;;0.35;0.35;;;21.20;99.90;;;;;;5055219;28;20055;-71
2022/06/24 12:17:00;;;;;;;0.45;0.45;;;21.30;99.90;;;;;;5052923;28;20045;-71
2022/06/24 12:19:27;;;;;;;2.05;1.85;;;21.20;99.90;;;;;;5053548;28;20174;-71
2022/06/24 12:22:22;;;;;;;1.08;0.57;;;21.20;99.90;;;;;;5087200;28;20456;-71
2022/06/24 12:24:58;;;;;;;0.03;0.03;;;21.20;99.90;;;;;;5051763;28;20052;-71
2022/06/24 12:27:31;;;;;;;0.40;0.40;;;21.20;99.90;;;;;;5073633;28;20895;-71
2022/06/24 12:29:57;;;;;;;0.10;0.10;;;21.10;99.90;;;;;;5073740;28;20045;-71
2022/06/24 12:32:23;;;;;;;0.57;0.57;;;21.00;99.90;;;;;;5071680;28;20399;-71
2022/06/24 12:34:55;;;;;;;0.35;0.35;;;21.00;99.90;;;;;;5077776;28;20044;-71
2022/06/24 12:37:21;;;;;;;1.25;0.82;;;21.10;99.90;;;;;;5075263;28;20076;-71
2022/06/24 12:39:47;;;;;;;1.25;1.15;;;21.10;99.90;;;;;;5085192;28;20080;-70
2022/06/24 12:42:23;;;;;;;0.38;0.38;;;21.20;99.90;;;;;;5072502;28;20048;-71
2022/06/24 12:44:55;;;;;;;0.28;0.28;;;21.20;99.90;;;;;;5064352;28;20127;-70
2022/06/24 12:53:00;;;;;;;0.30;0.30;;;21.40;99.90;;;;;;5053011;28;20471;-71
2022/06/24 12:55:27;;;;;;;0.15;0.15;;;21.60;99.90;;;;;;5072658;28;20526;-71
2022/06/24 12:57:53;;;;;;;0.75;0.38;;;21.50;99.90;;;;;;5054395;28;20056;-70
2022/06/24 13:00:19;;;;;;;1.00;1.00;;;21.60;99.90;;;;;;5071352;28;20040;-70
2022/06/24 13:02:52;;;;;;;0.30;0.30;;;21.70;99.90;;;;;;5054143;28;20454;-71
2022/06/24 13:05:19;;;;;;;0.25;0.25;;;21.70;99.90;;;;;;5054987;28;20048;-71
2022/06/24 13:07:46;;;;;;;0.55;0.55;;;21.80;99.90;;;;;;5073194;28;20044;-71